Terminal Aerodrome Forecast
Issued by NWS Louisville, KY

Home | Current Version | Previous Version | Text Only | Print | Product List | Glossary On
Versions: 1 2 3 4 5 6 7 8 9 10 11 12
000
FTUS43 KLMK 041100
TAFLEX
TAF
KLEX 041120Z 0412/0512 17004KT P6SM SCT200
     FM041600 22011G18KT P6SM SCT120 BKN250
     FM050100 19006KT P6SM BKN250=

USA.gov is the U.S. government's official web portal to all federal, state and local government web resources and services.